Kahneeta, Oregon
Current Conditions -  °F | °C
As of 6:56 AM on Wednesday 22 Oct 2014 (Local Time) from KRDM Reporting Station
Overcast Overcast  
Wind Chill: 51°   Ceiling: 10000
Heat Index: 51°   Visibility: 10mi
Dew Point: 37°   Wind: 13mph
Humidity: 59%   Direction: 170°S
Pressure: 29.91"   Gusts: NA
Location:  44.7239°N, 121.498°W
Report Text: KRDM 221356Z 17011KT 10SM FEW075 OVC100 11/03 A2991 RMK AO2 SLP126 T01060028
Loading
Personal Weather Stations






























Interactive Weather Map
Tropical Storm Tracking
New forecast layout! Learn more

10-Day Weather Forecast

Advertisements
Track Severe Weather on mobile